ไทเป, ไต้หวัน

07:29 PM CST วัน ธันวาคม 20, 2014 (GMT +0800)
ITAIPEIT2 | Change Station
CLOSE
Current Station
Personal Weather Stations
Location: Taipei Da'An, Taiwan
Elevation: 30 ft
Nearby Weather Stations

Elev 30 ft 25.03 °N, 121.53 °E | Updated 26 seconds ago

Mostly Cloudy
มีเมฆคลุมเป็นส่วนใหญ่
61.3 ฟาเรนไฮน์
Feels Like 61.3 ฟาเรนไฮน์
N
4.0
ลม ความผันแปร ลม from ทางทิศตะวันออกเฉียงเหนือ
Gusts 16.0 mph

วันนี้
High -- | Low -- ฟาเรนไฮน์
--% Chance of Precip.
Yesterday
High -- | Low -- ฟาเรนไฮน์
Precip. -- นิ้ว
6:33 AM 5:08 PM
เดือนเสี้ยว, 3% visible
ความดัน 30.21 นิ้ว
ทัศนวิสัย 6.2 ไมล์
เมฆ Few 2000 ft
มีเมฆคลุมเป็นส่วนใหญ่ 3500 ft
มีเมฆคลุมเป็นส่วนใหญ่ 5000 ft
อุณหภูมิที่อากาศอาจจับตัวเป็นหยาดน้ำค้าง 51 ฟาเรนไฮน์
ความชื้น 69%
Rainfall 0.00 นิ้ว
Snow Depth Not available.
UV 0.0 out of 12
Pollen Not available.
Air Quality Not available.
Flu Activity Not available.
METAR RCSS 201100Z 11011KT 9999 FEW020 BKN035 BKN050 16/08 Q1023 NOSIG RMK A3021

More Conditions Fewer Conditions

ความดัน 30.21 นิ้ว
ทัศนวิสัย 6.2 ไมล์
เมฆ Few 2000 ft
มีเมฆคลุมเป็นส่วนใหญ่ 3500 ft
มีเมฆคลุมเป็นส่วนใหญ่ 5000 ft
อุณหภูมิที่อากาศอาจจับตัวเป็นหยาดน้ำค้าง 51 ฟาเรนไฮน์
ความชื้น 69%
Rainfall 0.00 นิ้ว
Snow Depth Not available.
UV 0.0 out of 12
Pollen Not available.
Air Quality Not available.
Flu Activity Not available.
METAR RCSS 201100Z 11011KT 9999 FEW020 BKN035 BKN050 16/08 Q1023 NOSIG RMK A3021

More Conditions Fewer Conditions

10-Day Weather Forecast

Almanac

ดาราศาสตร์

Dec. 20, 2014 Rise Set
Actual Time
Civil Twilight
Nautical Twilight
Astronomical Twilight
Moon
Length Of Visible Light
ความยาวของวัน
Tomorrow will be .
, % of the Moon is Illuminated

Today's Extremes

Country Highs Country Lows

Community

WunderPhotos

Upload Photos

1,779,151 photos uploaded!

WunderBlogs® & News

Nearby

Air Quality

  Air Quality AQ Index Pollutant
Not available.

Snow Depth

Station Depth Elevation

Earthquake Activity

City Distance Mag. Time & Date
Minimum magnitude displayed is 2.5.

Coastal Water Temperatures

สถานที่ อุณหภูมิ

Nearby Weather Stations